sim
Sign-in with your pilot id or email,
or register
Callsign
Passwort

Schedule Details

Flight Number: DLH2725 (2)
Departure: Berlin Tegel Airport (EDDT) at 18:35
Arrival: Munich Airport (EDDM) at 19:45
Route: Lufthansa Passenger Schedule. Enter filed route here before submitting Pirep.

Weather Information
Getting current METAR information for EDDT 211920Z 07003KT CAVOK 18/09 Q1015 NOSIG
Getting current METAR information for EDDM 211920Z 34001KT CAVOK 13/12 Q1016 NOSIG

Schedule Frequency

Route Map